createdAt,value
2023-01-10T00:01:40.987Z,6.06
2023-01-10T00:04:07.720Z,6.06
2023-01-10T00:06:34.454Z,6.09
2023-01-10T00:09:01.208Z,6.10
2023-01-10T00:11:46.611Z,6.17
2023-01-10T00:14:13.417Z,6.20
2023-01-10T00:16:42.586Z,6.20
2023-01-10T00:19:10.575Z,6.19
2023-01-10T00:21:39.445Z,6.17
2023-01-10T00:24:23.392Z,6.12
2023-01-10T00:26:51.620Z,6.16
2023-01-10T00:29:27.667Z,6.18
2023-01-10T00:31:54.890Z,6.20
2023-01-10T00:34:21.778Z,6.22
2023-01-10T00:36:48.736Z,6.17
2023-01-10T00:39:18.992Z,6.17
2023-01-10T00:42:04.439Z,6.18
2023-01-10T00:44:31.358Z,6.11
2023-01-10T00:46:58.082Z,6.11
2023-01-10T00:49:24.745Z,6.07
2023-01-10T00:51:51.455Z,6.09
2023-01-10T00:54:18.163Z,6.07
2023-01-10T00:56:44.845Z,6.08
2023-01-10T00:59:11.599Z,5.96
2023-01-10T01:01:38.433Z,5.96
2023-01-10T01:04:05.364Z,5.98
2023-01-10T01:06:32.065Z,5.98
2023-01-10T01:08:59.113Z,5.99
2023-01-10T01:11:26.195Z,5.95
2023-01-10T01:13:53.092Z,5.95
2023-01-10T01:16:20.027Z,5.96
2023-01-10T01:18:46.962Z,5.94
2023-01-10T01:21:13.794Z,5.92
2023-01-10T01:23:40.585Z,5.99
2023-01-10T01:26:07.311Z,6.02
2023-01-10T01:28:33.988Z,6.00
2023-01-10T01:31:07.537Z,6.02
2023-01-10T01:33:34.659Z,6.01
2023-01-10T01:36:01.394Z,6.02
2023-01-10T01:38:28.169Z,6.06
2023-01-10T01:40:54.882Z,6.09
2023-01-10T01:43:27.070Z,6.06
2023-01-10T01:45:57.327Z,6.06
2023-01-10T01:48:41.014Z,6.05
2023-01-10T01:51:18.774Z,6.07
2023-01-10T01:54:03.577Z,6.04
2023-01-10T01:56:42.828Z,6.02
2023-01-10T01:59:15.849Z,6.00
2023-01-10T02:01:45.669Z,5.98
2023-01-10T02:04:27.020Z,5.95
2023-01-10T02:06:56.852Z,5.86
2023-01-10T02:09:48.748Z,5.81
2023-01-10T02:12:15.813Z,5.74
2023-01-10T02:14:44.931Z,5.65
2023-01-10T02:17:11.894Z,5.68
2023-01-10T02:20:01.424Z,5.70
2023-01-10T02:22:52.675Z,5.66
2023-01-10T02:25:50.447Z,5.67
2023-01-10T02:28:23.269Z,5.86
2023-01-10T02:31:19.673Z,5.90
2023-01-10T02:33:49.183Z,5.82
2023-01-10T02:36:24.995Z,5.75
2023-01-10T02:39:02.263Z,5.73
2023-01-10T02:41:42.022Z,5.69
2023-01-10T02:44:21.903Z,5.73
2023-01-10T02:46:49.208Z,5.71
2023-01-10T02:49:16.006Z,5.69
2023-01-10T02:51:44.582Z,5.69
2023-01-10T02:54:18.377Z,5.75
2023-01-10T02:56:48.046Z,5.74
2023-01-10T02:59:27.986Z,5.73
2023-01-10T03:02:32.316Z,5.72
2023-01-10T03:05:18.498Z,5.71
2023-01-10T03:07:54.445Z,5.71
2023-01-10T03:10:42.969Z,5.70
2023-01-10T03:13:32.066Z,5.68
2023-01-10T03:16:00.771Z,5.69
2023-01-10T03:18:32.864Z,5.66
2023-01-10T03:21:03.399Z,5.69
2023-01-10T03:23:33.761Z,5.66
2023-01-10T03:26:02.444Z,5.63
2023-01-10T03:28:35.361Z,5.61
2023-01-10T03:31:27.345Z,5.64
2023-01-10T03:33:55.096Z,5.68
2023-01-10T03:36:37.596Z,5.63
2023-01-10T03:39:27.461Z,5.62
2023-01-10T03:42:08.160Z,5.62
2023-01-10T03:44:55.348Z,5.63
2023-01-10T03:47:41.072Z,5.61
2023-01-10T03:50:23.135Z,5.67
2023-01-10T03:52:49.952Z,5.73
2023-01-10T03:55:23.000Z,5.71
2023-01-10T03:57:49.905Z,5.72
2023-01-10T04:00:17.742Z,5.73
2023-01-10T04:02:44.939Z,5.70
2023-01-10T04:05:12.222Z,5.70
2023-01-10T04:07:39.185Z,5.65
2023-01-10T04:10:07.264Z,5.68
2023-01-10T04:12:33.992Z,5.65
2023-01-10T04:15:02.491Z,5.59
2023-01-10T04:17:29.240Z,5.62
2023-01-10T04:19:56.030Z,5.65
2023-01-10T04:22:22.747Z,5.64
2023-01-10T04:24:51.840Z,5.63
2023-01-10T04:27:18.833Z,5.60
2023-01-10T04:29:45.857Z,5.61
2023-01-10T04:32:13.073Z,5.63
2023-01-10T04:34:39.828Z,5.65
2023-01-10T04:37:06.656Z,5.62
2023-01-10T04:39:33.416Z,5.58
2023-01-10T04:42:00.161Z,5.57
2023-01-10T04:44:26.936Z,5.54
2023-01-10T04:46:53.748Z,5.58
2023-01-10T04:49:20.524Z,5.53
2023-01-10T04:51:47.321Z,5.50
2023-01-10T04:54:14.102Z,5.50
2023-01-10T04:56:40.846Z,5.51
2023-01-10T04:59:10.274Z,5.52
2023-01-10T05:01:39.299Z,5.50
2023-01-10T05:04:06.750Z,5.55
2023-01-10T05:06:33.622Z,5.54
2023-01-10T05:09:00.335Z,5.52
2023-01-10T05:11:27.318Z,5.53
2023-01-10T05:13:54.111Z,5.57
2023-01-10T05:16:21.058Z,5.55
2023-01-10T05:18:48.262Z,5.53
2023-01-10T05:21:15.048Z,5.56
2023-01-10T05:23:41.972Z,5.60
2023-01-10T05:26:14.609Z,5.60
2023-01-10T05:28:41.692Z,5.51
2023-01-10T05:31:11.299Z,5.47
2023-01-10T05:33:38.573Z,5.52
2023-01-10T05:36:06.921Z,5.57
2023-01-10T05:38:33.995Z,5.55
2023-01-10T05:41:01.475Z,5.57
2023-01-10T05:43:28.472Z,5.61
2023-01-10T05:45:55.987Z,5.63
2023-01-10T05:48:23.411Z,5.65
2023-01-10T05:50:51.883Z,5.65
2023-01-10T05:53:19.703Z,5.60
2023-01-10T05:55:57.499Z,5.67
2023-01-10T05:58:27.916Z,5.64
2023-01-10T06:00:56.493Z,5.67
2023-01-10T06:03:24.941Z,5.73
2023-01-10T06:05:51.783Z,5.65
2023-01-10T06:08:19.832Z,5.62
2023-01-10T06:10:46.743Z,5.62
2023-01-10T06:13:15.161Z,5.61
2023-01-10T06:15:42.868Z,5.66
2023-01-10T06:18:12.060Z,5.66
2023-01-10T06:20:40.229Z,5.67
2023-01-10T06:23:07.062Z,5.68
2023-01-10T06:25:40.663Z,5.65
2023-01-10T06:28:08.719Z,5.67
2023-01-10T06:30:35.503Z,5.65
2023-01-10T06:33:04.392Z,5.63
2023-01-10T06:35:31.586Z,5.66
2023-01-10T06:37:59.580Z,5.69
2023-01-10T06:40:28.354Z,5.68
2023-01-10T06:42:55.420Z,5.67
2023-01-10T06:45:22.188Z,5.62
2023-01-10T06:47:48.920Z,5.66
2023-01-10T06:50:15.819Z,5.67
2023-01-10T06:52:42.966Z,5.68
2023-01-10T06:55:12.007Z,5.63
2023-01-10T06:57:38.831Z,5.64
2023-01-10T07:00:07.696Z,5.63
2023-01-10T07:02:34.708Z,5.63
2023-01-10T07:05:01.685Z,5.66
2023-01-10T07:07:28.728Z,5.69
2023-01-10T07:09:55.884Z,5.69
2023-01-10T07:12:22.647Z,5.67
2023-01-10T07:14:49.379Z,5.65
2023-01-10T07:17:16.298Z,5.62
2023-01-10T07:19:43.038Z,5.64
2023-01-10T07:22:09.774Z,5.63
2023-01-10T07:24:36.572Z,5.63
2023-01-10T07:27:03.522Z,5.62
2023-01-10T07:29:30.347Z,5.67
2023-01-10T07:31:57.435Z,5.68
2023-01-10T07:34:24.191Z,5.62
2023-01-10T07:36:50.987Z,5.60
2023-01-10T07:39:17.734Z,5.61
2023-01-10T07:41:46.759Z,5.61
2023-01-10T07:44:13.542Z,5.65
2023-01-10T07:46:40.377Z,5.65
2023-01-10T07:49:07.261Z,5.62
2023-01-10T07:51:34.276Z,5.62
2023-01-10T07:54:01.554Z,5.73
2023-01-10T07:56:28.337Z,5.76
2023-01-10T07:58:55.124Z,5.75
2023-01-10T08:01:22.227Z,5.73
2023-01-10T08:03:49.034Z,5.68
2023-01-10T08:06:16.859Z,5.70
2023-01-10T08:08:46.705Z,5.80
2023-01-10T08:11:13.543Z,5.88
2023-01-10T08:13:40.536Z,5.86
2023-01-10T08:16:09.469Z,5.88
2023-01-10T08:18:36.497Z,5.94
2023-01-10T08:21:03.303Z,5.96
2023-01-10T08:23:30.126Z,5.99
2023-01-10T08:25:58.462Z,5.92
2023-01-10T08:28:25.138Z,5.90
2023-01-10T08:30:55.570Z,5.95
2023-01-10T08:33:23.909Z,5.99
2023-01-10T08:35:51.099Z,6.06
2023-01-10T08:38:17.943Z,6.10
2023-01-10T08:40:44.761Z,6.17
2023-01-10T08:43:15.043Z,6.25
2023-01-10T08:45:42.043Z,6.31
2023-01-10T08:48:10.109Z,6.35
2023-01-10T08:50:36.933Z,6.34
2023-01-10T08:53:04.073Z,6.39
2023-01-10T08:55:31.641Z,6.44
2023-01-10T08:58:02.610Z,6.46
2023-01-10T09:00:30.215Z,6.51
2023-01-10T09:02:57.733Z,6.54
2023-01-10T09:05:28.130Z,6.59
2023-01-10T09:08:00.777Z,6.56
2023-01-10T09:10:28.796Z,6.57
2023-01-10T09:12:59.546Z,6.56
2023-01-10T09:15:29.427Z,6.58
2023-01-10T09:17:58.293Z,6.63
2023-01-10T09:20:26.340Z,6.65
2023-01-10T09:22:53.469Z,6.69
2023-01-10T09:25:21.443Z,6.82
2023-01-10T09:27:48.667Z,6.85
2023-01-10T09:30:15.958Z,6.87
2023-01-10T09:32:42.663Z,6.93
2023-01-10T09:35:09.443Z,7.00
2023-01-10T09:37:38.108Z,6.98
2023-01-10T09:40:06.365Z,6.88
2023-01-10T09:43:00.484Z,6.93
2023-01-10T09:45:46.016Z,6.97
2023-01-10T09:48:24.201Z,7.20
2023-01-10T09:50:57.490Z,7.21
2023-01-10T09:53:28.154Z,7.17
2023-01-10T09:56:00.920Z,7.13
2023-01-10T09:58:31.180Z,7.11
2023-01-10T10:01:00.771Z,7.09
2023-01-10T10:03:43.328Z,7.09
2023-01-10T10:06:13.111Z,7.08
2023-01-10T10:08:41.955Z,7.11
2023-01-10T10:11:19.187Z,7.14
2023-01-10T10:13:55.749Z,7.19
2023-01-10T10:17:00.128Z,7.12
2023-01-10T10:19:54.964Z,7.17
2023-01-10T10:22:44.371Z,7.10
2023-01-10T10:25:36.032Z,7.05
2023-01-10T10:28:31.809Z,6.99
2023-01-10T10:31:30.135Z,6.98
2023-01-10T10:34:03.779Z,6.87
2023-01-10T10:36:42.546Z,6.93
2023-01-10T10:39:16.707Z,6.93
2023-01-10T10:41:47.860Z,7.01
2023-01-10T10:44:33.633Z,7.08
2023-01-10T10:47:00.942Z,6.98
2023-01-10T10:49:38.657Z,6.99
2023-01-10T10:52:17.536Z,7.05
2023-01-10T10:54:46.932Z,7.02
2023-01-10T10:57:14.505Z,7.07
2023-01-10T10:59:44.672Z,7.22
2023-01-10T11:02:28.842Z,7.27
2023-01-10T11:04:59.940Z,7.35
2023-01-10T11:07:32.696Z,7.42
2023-01-10T11:10:08.557Z,7.57
2023-01-10T11:12:38.521Z,7.79
2023-01-10T11:15:05.755Z,7.94
2023-01-10T11:17:34.419Z,7.94
2023-01-10T11:20:04.458Z,8.03
2023-01-10T11:22:39.627Z,8.24
2023-01-10T11:25:15.764Z,8.31
2023-01-10T11:28:01.618Z,8.22
2023-01-10T11:30:31.767Z,8.29
2023-01-10T11:33:01.821Z,8.27
2023-01-10T11:35:30.590Z,8.40
2023-01-10T11:38:06.831Z,8.53
2023-01-10T11:40:37.778Z,8.41
2023-01-10T11:43:29.923Z,8.37
2023-01-10T11:46:04.024Z,8.38
2023-01-10T11:49:08.030Z,8.27
2023-01-10T11:51:44.850Z,8.39
2023-01-10T11:54:17.615Z,8.38
2023-01-10T11:56:55.376Z,8.27
2023-01-10T11:59:23.340Z,8.32
2023-01-10T12:01:57.241Z,8.31
2023-01-10T12:04:25.562Z,8.26
2023-01-10T12:07:02.837Z,8.13
2023-01-10T12:09:36.329Z,8.17
2023-01-10T12:12:05.515Z,8.25
2023-01-10T12:14:32.388Z,8.18
2023-01-10T12:17:02.275Z,8.12
2023-01-10T12:19:29.635Z,8.08
2023-01-10T12:22:02.791Z,8.03
2023-01-10T12:24:35.802Z,8.01
2023-01-10T12:27:04.659Z,7.97
2023-01-10T12:30:02.504Z,7.95
2023-01-10T12:32:38.335Z,7.90
2023-01-10T12:35:12.014Z,8.02
2023-01-10T12:37:59.080Z,8.11
2023-01-10T12:40:43.585Z,8.11
2023-01-10T12:43:36.510Z,8.25
2023-01-10T12:46:33.682Z,8.31
2023-01-10T12:49:38.850Z,8.49
2023-01-10T12:52:12.484Z,8.49
2023-01-10T12:54:39.256Z,8.52
2023-01-10T12:57:32.558Z,8.40
2023-01-10T13:00:04.290Z,8.36
2023-01-10T13:02:40.008Z,8.34
2023-01-10T13:05:18.379Z,8.24
2023-01-10T13:07:47.345Z,8.21
2023-01-10T13:10:21.500Z,8.33
2023-01-10T13:12:59.062Z,8.39
2023-01-10T13:15:32.776Z,8.36
2023-01-10T13:18:04.745Z,8.37
2023-01-10T13:20:40.465Z,8.30
2023-01-10T13:23:30.517Z,8.27
2023-01-10T13:26:01.621Z,8.23
2023-01-10T13:28:30.504Z,8.27
2023-01-10T13:31:01.340Z,8.25
2023-01-10T13:33:36.082Z,8.17
2023-01-10T13:36:16.326Z,8.17
2023-01-10T13:38:58.750Z,8.14
2023-01-10T13:42:15.950Z,8.07
2023-01-10T13:45:01.197Z,8.00
2023-01-10T13:47:40.187Z,8.11
2023-01-10T13:50:49.908Z,8.18
2023-01-10T13:53:19.786Z,8.18
2023-01-10T13:55:49.782Z,8.17
2023-01-10T13:58:16.451Z,8.16
2023-01-10T14:01:11.165Z,8.08
2023-01-10T14:03:50.801Z,8.02
2023-01-10T14:06:40.910Z,7.98
2023-01-10T14:09:13.913Z,8.02
2023-01-10T14:11:55.916Z,8.03
2023-01-10T14:14:28.764Z,7.98
2023-01-10T14:17:09.152Z,7.99
2023-01-10T14:19:48.637Z,7.92
2023-01-10T14:22:26.219Z,7.89
2023-01-10T14:24:54.330Z,7.85
2023-01-10T14:27:23.038Z,7.87
2023-01-10T14:29:57.830Z,7.85
2023-01-10T14:32:38.257Z,7.79
2023-01-10T14:35:08.445Z,7.78
2023-01-10T14:37:44.960Z,7.93
2023-01-10T14:40:43.195Z,7.74
2023-01-10T14:43:15.645Z,7.70
2023-01-10T14:46:06.194Z,7.68
2023-01-10T14:48:41.953Z,7.67
2023-01-10T14:51:24.135Z,7.67
2023-01-10T14:54:07.246Z,7.61
2023-01-10T14:56:38.831Z,7.52
2023-01-10T14:59:27.546Z,7.45
2023-01-10T15:02:14.611Z,7.45
2023-01-10T15:04:53.135Z,7.36
2023-01-10T15:07:25.251Z,7.31
2023-01-10T15:09:58.867Z,7.25
2023-01-10T15:12:27.764Z,7.22
2023-01-10T15:15:15.485Z,7.22
2023-01-10T15:17:43.977Z,7.21
2023-01-10T15:20:21.763Z,7.20
2023-01-10T15:22:59.223Z,7.21
2023-01-10T15:25:32.212Z,7.24
2023-01-10T15:28:02.967Z,7.22
2023-01-10T15:30:37.531Z,7.18
2023-01-10T15:33:17.138Z,7.12
2023-01-10T15:35:46.949Z,7.07
2023-01-10T15:38:17.496Z,7.06
2023-01-10T15:40:46.443Z,7.04
2023-01-10T15:43:34.877Z,6.99
2023-01-10T15:46:05.271Z,7.02
2023-01-10T15:48:59.124Z,6.98
2023-01-10T15:51:33.722Z,7.02
2023-01-10T15:54:04.787Z,7.07
2023-01-10T15:56:40.980Z,7.04
2023-01-10T15:59:30.169Z,6.98
2023-01-10T16:02:05.209Z,6.92
2023-01-10T16:04:36.566Z,6.86
2023-01-10T16:07:24.251Z,6.88
2023-01-10T16:10:22.056Z,6.79
2023-01-10T16:13:07.380Z,6.79
2023-01-10T16:15:37.995Z,6.76
2023-01-10T16:18:04.958Z,6.73
2023-01-10T16:20:38.052Z,6.73
2023-01-10T16:23:08.742Z,6.69
2023-01-10T16:25:44.933Z,6.65
2023-01-10T16:28:14.270Z,6.52
2023-01-10T16:30:45.277Z,6.47
2023-01-10T16:33:17.663Z,6.44
2023-01-10T16:35:46.165Z,6.46
2023-01-10T16:38:13.670Z,6.53
2023-01-10T16:40:42.752Z,6.58
2023-01-10T16:43:18.626Z,6.57
2023-01-10T16:45:46.463Z,6.50
2023-01-10T16:48:14.735Z,6.46
2023-01-10T16:50:42.568Z,6.39
2023-01-10T16:53:15.281Z,6.37
2023-01-10T16:55:52.997Z,6.37
2023-01-10T16:58:20.666Z,6.40
2023-01-10T17:00:51.574Z,6.39
2023-01-10T17:03:23.443Z,6.39
2023-01-10T17:05:50.480Z,6.42
2023-01-10T17:08:20.794Z,6.44
2023-01-10T17:10:52.320Z,6.47
2023-01-10T17:13:27.167Z,6.52
2023-01-10T17:15:53.972Z,6.56
2023-01-10T17:18:20.860Z,6.47
2023-01-10T17:20:48.808Z,6.43
2023-01-10T17:23:15.690Z,6.44
2023-01-10T17:25:43.031Z,6.44
2023-01-10T17:28:11.600Z,6.45
2023-01-10T17:30:42.889Z,6.44
2023-01-10T17:33:13.216Z,6.45
2023-01-10T17:35:44.925Z,6.48
2023-01-10T17:38:14.680Z,6.46
2023-01-10T17:40:45.110Z,6.45
2023-01-10T17:43:13.589Z,6.43
2023-01-10T17:45:41.463Z,6.39
2023-01-10T17:48:09.268Z,6.38
2023-01-10T17:50:36.524Z,6.32
2023-01-10T17:53:03.281Z,6.34
2023-01-10T17:55:30.076Z,6.36
2023-01-10T17:57:57.041Z,6.42
2023-01-10T18:00:24.246Z,6.44
2023-01-10T18:02:51.128Z,6.44
2023-01-10T18:05:18.060Z,6.46
2023-01-10T18:07:44.879Z,6.42
2023-01-10T18:10:11.856Z,6.38
2023-01-10T18:12:38.633Z,6.37
2023-01-10T18:15:06.165Z,6.35
2023-01-10T18:17:33.444Z,6.36
2023-01-10T18:20:00.287Z,6.34
2023-01-10T18:22:45.635Z,6.31
2023-01-10T18:25:18.288Z,6.28
2023-01-10T18:27:50.045Z,6.31
2023-01-10T18:30:22.612Z,6.25
2023-01-10T18:32:51.123Z,6.27
2023-01-10T18:35:18.663Z,6.28
2023-01-10T18:37:45.737Z,6.33
2023-01-10T18:40:15.516Z,6.36
2023-01-10T18:42:43.167Z,6.37
2023-01-10T18:45:10.607Z,6.28
2023-01-10T18:47:37.640Z,6.27
2023-01-10T18:50:05.206Z,6.28
2023-01-10T18:52:32.142Z,6.25
2023-01-10T18:55:00.903Z,6.31
2023-01-10T18:57:32.521Z,6.32
2023-01-10T18:59:59.343Z,6.29
2023-01-10T19:02:26.257Z,6.29
2023-01-10T19:05:09.727Z,6.25
2023-01-10T19:07:37.197Z,6.24
2023-01-10T19:10:04.793Z,6.20
2023-01-10T19:12:31.695Z,6.25
2023-01-10T19:15:00.907Z,6.25
2023-01-10T19:17:29.563Z,6.20
2023-01-10T19:19:57.187Z,6.21
2023-01-10T19:22:24.317Z,6.18
2023-01-10T19:24:51.547Z,6.16
2023-01-10T19:27:18.505Z,6.21
2023-01-10T19:29:48.524Z,6.25
2023-01-10T19:32:15.918Z,6.24
2023-01-10T19:34:44.817Z,6.19
2023-01-10T19:37:13.290Z,6.18
2023-01-10T19:39:40.236Z,6.13
2023-01-10T19:42:07.025Z,6.20
2023-01-10T19:44:37.429Z,6.22
2023-01-10T19:47:04.506Z,6.27
2023-01-10T19:49:35.922Z,6.31
2023-01-10T19:52:04.654Z,6.30
2023-01-10T19:54:31.566Z,6.31
2023-01-10T19:57:09.609Z,6.27
2023-01-10T19:59:51.838Z,6.22
2023-01-10T20:02:19.489Z,6.23
2023-01-10T20:04:46.513Z,6.24
2023-01-10T20:07:18.662Z,6.24
2023-01-10T20:09:45.711Z,6.20
2023-01-10T20:12:22.302Z,6.19
2023-01-10T20:14:57.630Z,6.22
2023-01-10T20:17:24.825Z,6.20
2023-01-10T20:19:51.710Z,6.15
2023-01-10T20:22:28.336Z,6.16
2023-01-10T20:25:09.576Z,6.17
2023-01-10T20:27:40.221Z,6.20
2023-01-10T20:30:14.107Z,6.23
2023-01-10T20:32:43.845Z,6.26
2023-01-10T20:35:11.791Z,6.28
2023-01-10T20:38:03.661Z,6.26
2023-01-10T20:40:58.859Z,6.22
2023-01-10T20:43:26.271Z,6.21
2023-01-10T20:46:26.371Z,6.19
2023-01-10T20:49:02.362Z,6.16
2023-01-10T20:51:36.338Z,6.18
2023-01-10T20:54:08.428Z,6.20
2023-01-10T20:56:41.722Z,6.20
2023-01-10T20:59:13.395Z,6.17
2023-01-10T21:01:41.208Z,6.19
2023-01-10T21:04:08.149Z,6.18
2023-01-10T21:06:35.805Z,6.18
2023-01-10T21:09:21.169Z,6.17
2023-01-10T21:12:02.034Z,6.13
2023-01-10T21:14:34.047Z,6.16
2023-01-10T21:17:00.770Z,6.09
2023-01-10T21:19:27.593Z,6.11
2023-01-10T21:21:59.167Z,6.09
2023-01-10T21:24:26.007Z,6.09
2023-01-10T21:27:03.358Z,6.08
2023-01-10T21:29:33.492Z,6.09
2023-01-10T21:32:00.488Z,6.09
2023-01-10T21:34:27.310Z,6.15
2023-01-10T21:36:54.450Z,6.09
2023-01-10T21:39:21.215Z,6.08
2023-01-10T21:42:09.656Z,6.07
2023-01-10T21:44:36.778Z,6.08
2023-01-10T21:47:06.663Z,6.06
2023-01-10T21:49:51.288Z,6.06
2023-01-10T21:52:18.152Z,6.10
2023-01-10T21:54:47.275Z,6.13
2023-01-10T21:57:14.154Z,6.12
2023-01-10T21:59:41.697Z,6.14
2023-01-10T22:02:12.361Z,6.17
2023-01-10T22:04:39.072Z,6.14
2023-01-10T22:07:08.398Z,6.14
2023-01-10T22:09:36.386Z,6.14
2023-01-10T22:12:03.464Z,6.16
2023-01-10T22:14:30.221Z,6.18
2023-01-10T22:16:57.014Z,6.21
2023-01-10T22:19:23.921Z,6.25
2023-01-10T22:21:51.528Z,6.21
2023-01-10T22:24:18.289Z,6.22
2023-01-10T22:26:45.303Z,6.22
2023-01-10T22:29:12.018Z,6.24
2023-01-10T22:31:41.129Z,6.25
2023-01-10T22:34:08.154Z,6.28
2023-01-10T22:36:34.899Z,6.29
2023-01-10T22:39:01.588Z,6.31
2023-01-10T22:41:29.080Z,6.33
2023-01-10T22:43:56.540Z,6.36
2023-01-10T22:46:23.672Z,6.37
2023-01-10T22:48:50.620Z,6.40
2023-01-10T22:51:18.794Z,6.45
2023-01-10T22:53:50.481Z,6.46
2023-01-10T22:56:17.538Z,6.51
2023-01-10T22:58:47.954Z,6.53
2023-01-10T23:01:16.883Z,6.55
2023-01-10T23:03:44.734Z,6.58
2023-01-10T23:06:13.312Z,6.64
2023-01-10T23:08:41.954Z,6.68
2023-01-10T23:11:09.976Z,6.69
2023-01-10T23:13:36.787Z,6.70
2023-01-10T23:16:09.618Z,6.74
2023-01-10T23:18:36.546Z,6.79
2023-01-10T23:21:03.986Z,6.84
2023-01-10T23:23:30.966Z,6.91
2023-01-10T23:26:09.439Z,6.93
2023-01-10T23:28:38.825Z,6.96
2023-01-10T23:31:08.421Z,7.00
2023-01-10T23:33:35.466Z,7.03
2023-01-10T23:36:03.115Z,7.07
2023-01-10T23:38:30.360Z,7.07
2023-01-10T23:40:57.503Z,7.07
2023-01-10T23:43:25.274Z,7.06
2023-01-10T23:45:52.767Z,7.10
2023-01-10T23:48:19.995Z,7.11
2023-01-10T23:50:49.142Z,7.13
2023-01-10T23:53:16.463Z,7.14
2023-01-10T23:55:43.181Z,7.16
2023-01-10T23:58:10.079Z,7.15
